Time;durP1;ratioP1;P1;durP2;ratioP2;P2;SDS_P1;SDS_P2;PMS_P1;PMS_P2;Temp;Humidity;BMP_temperature;BMP_pressure;BME280_temperature;BME280_humidity;BME280_pressure;Samples;Min_cycle;Max_cycle;Signal;HPM_P1;HPM_P2
2023/09/25 00:00:52;;;;;;;3.15;2.00;;;13.20;11.90;;;;;;5097799;28;20486;-68
2023/09/25 00:03:17;;;;;;;3.95;1.83;;;13.20;10.60;;;;;;5097336;28;20396;-68
2023/09/25 00:05:45;;;;;;;3.97;2.10;;;13.20;11.50;;;;;;5111270;28;20759;-68
2023/09/25 00:08:11;;;;;;;3.80;2.00;;;13.20;11.30;;;;;;5105921;28;20405;-69
2023/09/25 00:10:37;;;;;;;3.60;1.80;;;13.20;11.90;;;;;;5102833;28;20418;-69
2023/09/25 00:13:04;;;;;;;4.53;1.97;;;13.20;11.90;;;;;;5089988;28;20401;-69
2023/09/25 00:15:29;;;;;;;4.72;1.98;;;13.30;13.40;;;;;;5100084;28;20507;-69
2023/09/25 00:17:55;;;;;;;4.20;1.98;;;13.20;14.10;;;;;;5096359;28;21023;-69
2023/09/25 00:20:23;;;;;;;4.00;1.90;;;13.30;12.70;;;;;;5100491;28;20402;-69
2023/09/25 00:22:49;;;;;;;3.33;1.90;;;13.20;13.50;;;;;;5090509;28;20414;-69
2023/09/25 00:25:15;;;;;;;4.10;1.80;;;13.30;14.00;;;;;;5089489;28;20417;-69
2023/09/25 00:27:41;;;;;;;4.40;1.98;;;13.30;13.70;;;;;;5105051;28;20398;-69
2023/09/25 00:30:08;;;;;;;3.60;1.90;;;13.30;13.70;;;;;;5108767;28;21027;-70
2023/09/25 00:32:35;;;;;;;3.65;1.70;;;13.30;14.00;;;;;;5108857;28;20400;-69
2023/09/25 00:35:01;;;;;;;3.50;2.00;;;13.30;13.30;;;;;;5098873;28;20437;-69
2023/09/25 00:37:27;;;;;;;3.30;1.88;;;13.30;14.60;;;;;;5085630;28;20402;-70
2023/09/25 00:39:53;;;;;;;3.38;1.88;;;13.30;14.30;;;;;;5099123;28;20939;-69
2023/09/25 00:42:18;;;;;;;4.50;1.80;;;13.40;14.20;;;;;;5105484;28;21143;-69
2023/09/25 00:44:44;;;;;;;3.13;1.70;;;13.40;15.40;;;;;;5109630;28;20416;-69
2023/09/25 00:47:10;;;;;;;4.10;1.83;;;13.40;14.60;;;;;;5077316;28;20489;-69
2023/09/25 00:49:36;;;;;;;3.42;1.90;;;13.40;14.30;;;;;;5109264;28;20563;-69
2023/09/25 00:52:03;;;;;;;3.70;1.88;;;13.50;15.40;;;;;;5077706;28;20412;-70
2023/09/25 00:54:31;;;;;;;3.72;1.92;;;13.50;14.80;;;;;;5098181;28;20401;-70
2023/09/25 00:56:57;;;;;;;4.13;2.10;;;13.50;13.00;;;;;;5076366;28;20424;-70
2023/09/25 00:59:24;;;;;;;3.30;1.80;;;13.50;14.20;;;;;;5100283;28;20397;-70
2023/09/25 01:01:49;;;;;;;5.15;2.30;;;13.60;13.30;;;;;;5102712;28;20414;-70
2023/09/25 01:04:15;;;;;;;3.93;2.10;;;13.60;13.60;;;;;;5089631;28;20404;-70
2023/09/25 01:06:43;;;;;;;4.57;2.00;;;13.60;13.30;;;;;;5104281;28;20766;-70
2023/09/25 01:09:09;;;;;;;3.05;1.90;;;13.60;12.90;;;;;;5079200;28;20500;-69
2023/09/25 01:11:35;;;;;;;5.30;2.10;;;13.60;12.70;;;;;;5105056;28;20412;-70
2023/09/25 01:14:00;;;;;;;4.40;2.20;;;13.60;12.40;;;;;;5080146;28;20410;-70
2023/09/25 01:16:26;;;;;;;4.07;1.90;;;13.60;12.20;;;;;;5106436;28;20487;-70
2023/09/25 01:18:52;;;;;;;4.07;1.97;;;13.60;11.80;;;;;;5090063;28;20409;-70
2023/09/25 01:21:18;;;;;;;2.97;1.77;;;13.60;12.70;;;;;;5091000;28;20770;-70
2023/09/25 01:23:43;;;;;;;3.33;1.70;;;13.60;12.90;;;;;;5089235;28;20410;-70
2023/09/25 01:26:09;;;;;;;3.80;1.83;;;13.60;12.40;;;;;;5090225;28;20414;-70
2023/09/25 01:28:35;;;;;;;4.13;1.88;;;13.60;12.70;;;;;;5088662;28;20432;-70
2023/09/25 01:31:00;;;;;;;3.33;1.60;;;13.60;12.20;;;;;;5091382;28;20439;-70
2023/09/25 01:33:26;;;;;;;3.45;1.80;;;13.60;12.20;;;;;;5108055;28;20475;-70
2023/09/25 01:35:52;;;;;;;3.55;1.80;;;13.60;12.10;;;;;;5103460;28;21251;-70
2023/09/25 01:38:18;;;;;;;3.73;1.83;;;13.50;11.30;;;;;;5088942;28;20398;-70
2023/09/25 01:40:43;;;;;;;3.67;1.70;;;13.50;12.00;;;;;;5101777;28;20398;-70
2023/09/25 01:43:09;;;;;;;5.00;2.27;;;13.50;12.00;;;;;;5106890;28;20396;-70
2023/09/25 01:45:35;;;;;;;2.83;1.88;;;13.50;12.10;;;;;;5091352;28;20406;-70
2023/09/25 01:48:00;;;;;;;3.40;1.98;;;13.50;12.60;;;;;;5097048;28;20459;-69
2023/09/25 01:50:28;;;;;;;4.70;1.90;;;13.40;12.30;;;;;;5090940;28;20433;-70
2023/09/25 01:52:55;;;;;;;7.18;2.10;;;13.30;13.40;;;;;;5078758;28;20415;-69
2023/09/25 01:55:21;;;;;;;4.15;2.13;;;13.40;13.40;;;;;;5092467;28;20463;-70
2023/09/25 01:57:47;;;;;;;3.70;2.07;;;13.40;13.60;;;;;;5088771;28;20438;-69
2023/09/25 02:00:13;;;;;;;4.22;1.90;;;13.40;13.10;;;;;;5099743;28;20420;-69
2023/09/25 02:02:42;;;;;;;3.60;1.85;;;13.30;14.30;;;;;;5088632;28;20429;-70
2023/09/25 02:05:08;;;;;;;4.70;1.90;;;13.30;14.50;;;;;;5087850;28;20403;-69
2023/09/25 02:07:34;;;;;;;4.22;2.10;;;13.30;13.80;;;;;;5088310;28;20402;-69
2023/09/25 02:09:59;;;;;;;4.37;1.93;;;13.40;14.40;;;;;;5078404;28;20439;-69
2023/09/25 02:12:26;;;;;;;3.38;1.95;;;13.40;15.00;;;;;;5096675;28;20398;-69
2023/09/25 02:14:56;;;;;;;3.78;1.80;;;13.30;14.30;;;;;;5101167;28;20397;-69
2023/09/25 02:17:22;;;;;;;4.70;1.92;;;13.30;14.30;;;;;;5088544;28;20437;-69
2023/09/25 02:19:47;;;;;;;3.92;2.20;;;13.20;14.30;;;;;;5088485;28;20714;-69
2023/09/25 02:22:13;;;;;;;3.10;1.80;;;13.20;15.70;;;;;;5088098;28;20943;-69
2023/09/25 02:24:39;;;;;;;4.60;1.88;;;13.20;14.30;;;;;;5105578;28;20404;-69
2023/09/25 02:27:05;;;;;;;4.03;2.10;;;13.10;15.50;;;;;;5107498;28;20396;-69
2023/09/25 02:29:31;;;;;;;3.60;2.00;;;13.10;16.40;;;;;;5104939;28;20444;-69
2023/09/25 02:31:56;;;;;;;4.63;1.90;;;13.10;16.40;;;;;;5096490;28;20410;-69
2023/09/25 02:34:22;;;;;;;3.92;1.98;;;13.10;16.00;;;;;;5089331;28;20451;-69
2023/09/25 02:36:48;;;;;;;3.80;2.10;;;13.10;17.40;;;;;;5091802;28;20754;-69
2023/09/25 02:39:15;;;;;;;2.58;1.92;;;13.00;17.40;;;;;;5105942;28;20511;-69
2023/09/25 02:41:40;;;;;;;3.42;2.13;;;13.00;17.70;;;;;;5083403;28;20398;-69
2023/09/25 02:44:06;;;;;;;3.58;2.20;;;13.00;17.50;;;;;;5088528;28;20764;-69
2023/09/25 02:46:32;;;;;;;2.70;2.08;;;12.90;17.50;;;;;;5087616;28;20899;-69
2023/09/25 02:48:58;;;;;;;4.93;2.50;;;12.90;18.50;;;;;;5089138;28;20401;-69
2023/09/25 02:51:23;;;;;;;3.30;2.30;;;13.00;19.10;;;;;;5102874;28;20484;-70
2023/09/25 02:53:51;;;;;;;3.28;2.40;;;12.90;19.40;;;;;;5097767;28;20401;-68
2023/09/25 02:56:18;;;;;;;4.33;2.53;;;12.90;19.70;;;;;;5100507;28;20882;-69
2023/09/25 02:58:45;;;;;;;4.57;2.40;;;12.90;19.80;;;;;;5097185;28;20974;-69
2023/09/25 03:01:10;;;;;;;4.40;2.58;;;12.90;20.00;;;;;;5105248;28;20498;-69
2023/09/25 03:03:36;;;;;;;4.88;2.72;;;12.90;19.40;;;;;;5096482;28;20491;-69
2023/09/25 03:06:01;;;;;;;4.50;2.60;;;12.90;21.40;;;;;;5093320;28;20410;-69
2023/09/25 03:08:27;;;;;;;4.32;2.63;;;12.90;21.00;;;;;;5102093;28;20429;-69
2023/09/25 03:10:53;;;;;;;3.83;2.57;;;12.80;20.60;;;;;;5097624;28;20772;-69
2023/09/25 03:13:18;;;;;;;4.97;2.60;;;12.80;20.50;;;;;;5083673;28;20409;-69
2023/09/25 03:15:44;;;;;;;3.17;2.23;;;12.80;21.10;;;;;;5108104;28;20511;-69
2023/09/25 03:18:11;;;;;;;4.00;2.55;;;12.80;21.20;;;;;;5093626;28;20390;-69
2023/09/25 03:20:38;;;;;;;5.70;2.90;;;12.80;21.90;;;;;;5092001;28;21214;-69
2023/09/25 03:23:04;;;;;;;3.80;2.75;;;12.80;22.20;;;;;;5078280;28;20936;-69
2023/09/25 03:25:40;;;;;;;3.58;2.22;;;12.80;22.40;;;;;;5091062;28;20405;-69
2023/09/25 03:28:05;;;;;;;3.38;2.25;;;12.80;22.00;;;;;;5108156;28;20894;-69
2023/09/25 03:30:31;;;;;;;3.08;2.28;;;12.70;22.60;;;;;;5110737;28;20427;-69
2023/09/25 03:32:57;;;;;;;3.43;2.50;;;12.70;22.30;;;;;;5081070;28;20400;-69
2023/09/25 03:35:22;;;;;;;2.83;2.20;;;12.70;22.50;;;;;;5109553;28;20816;-69
2023/09/25 03:37:48;;;;;;;3.57;2.30;;;12.70;22.90;;;;;;5107409;28;20459;-69
2023/09/25 03:40:14;;;;;;;6.88;2.80;;;12.70;22.70;;;;;;5099362;28;20397;-69
2023/09/25 03:42:41;;;;;;;5.53;2.60;;;12.70;23.60;;;;;;5104505;28;20413;-69
2023/09/25 03:45:07;;;;;;;4.95;2.45;;;12.70;23.70;;;;;;5101574;28;20403;-68
2023/09/25 03:47:34;;;;;;;4.67;2.27;;;12.70;23.50;;;;;;5108768;28;20439;-69
2023/09/25 03:50:00;;;;;;;4.45;2.28;;;12.70;24.40;;;;;;5109530;28;20515;-69
2023/09/25 03:52:26;;;;;;;4.67;2.47;;;12.70;24.10;;;;;;5092455;28;20489;-69
2023/09/25 03:54:51;;;;;;;4.32;2.40;;;12.70;24.00;;;;;;5101422;28;20758;-69
2023/09/25 03:57:17;;;;;;;4.80;2.30;;;12.60;24.60;;;;;;5093302;28;20559;-69
2023/09/25 03:59:43;;;;;;;4.63;2.22;;;12.60;24.30;;;;;;5091140;28;20891;-69
2023/09/25 04:02:08;;;;;;;4.20;2.43;;;12.60;24.30;;;;;;5107044;28;20396;-69
2023/09/25 04:04:34;;;;;;;3.60;2.10;;;12.60;24.80;;;;;;5082350;28;20915;-69
2023/09/25 04:06:59;;;;;;;4.37;2.33;;;12.60;25.60;;;;;;5090226;28;20441;-69
2023/09/25 04:09:25;;;;;;;4.53;2.33;;;12.60;25.30;;;;;;5095969;28;20417;-69
2023/09/25 04:11:50;;;;;;;5.03;2.80;;;12.60;24.00;;;;;;5101901;28;20390;-69
2023/09/25 04:14:17;;;;;;;3.03;2.10;;;12.60;25.20;;;;;;5094381;28;20929;-69
2023/09/25 04:16:42;;;;;;;3.63;2.10;;;12.60;24.60;;;;;;5094385;28;20467;-69
2023/09/25 04:19:08;;;;;;;3.60;2.30;;;12.60;25.60;;;;;;5090434;28;20418;-69
2023/09/25 04:21:33;;;;;;;3.40;2.30;;;12.60;25.70;;;;;;5089786;28;20791;-69
2023/09/25 04:24:02;;;;;;;4.50;2.60;;;12.60;25.40;;;;;;5089868;28;20410;-69
2023/09/25 04:26:28;;;;;;;3.70;2.35;;;12.70;24.90;;;;;;5098744;28;20402;-69
2023/09/25 04:28:55;;;;;;;4.17;2.20;;;12.70;25.50;;;;;;5094706;28;20413;-69
2023/09/25 04:31:21;;;;;;;6.38;2.40;;;12.60;25.70;;;;;;5094235;28;20429;-69
2023/09/25 04:33:46;;;;;;;3.55;2.60;;;12.60;25.40;;;;;;5089725;28;20406;-69
2023/09/25 04:36:12;;;;;;;4.40;2.47;;;12.70;25.40;;;;;;5103333;28;20395;-69
2023/09/25 04:38:38;;;;;;;3.88;2.88;;;12.60;25.50;;;;;;5092332;28;21214;-69
2023/09/25 04:41:04;;;;;;;4.07;2.40;;;12.60;24.90;;;;;;5094663;28;20449;-69
2023/09/25 04:43:32;;;;;;;5.03;2.63;;;12.60;25.80;;;;;;5098400;28;20390;-69
2023/09/25 04:45:58;;;;;;;5.55;2.40;;;12.60;25.20;;;;;;5092920;28;20396;-70
2023/09/25 04:48:29;;;;;;;3.97;2.38;;;12.60;25.50;;;;;;5098170;28;20508;-69
2023/09/25 04:50:56;;;;;;;4.57;2.40;;;12.60;25.90;;;;;;5076225;28;20442;-69
2023/09/25 04:53:22;;;;;;;4.40;2.40;;;12.60;25.50;;;;;;5090964;28;20477;-69
2023/09/25 04:55:48;;;;;;;4.00;2.22;;;12.60;25.90;;;;;;5101278;28;20507;-69
2023/09/25 04:58:13;;;;;;;3.88;2.45;;;12.60;25.60;;;;;;5090168;28;20390;-70
2023/09/25 05:00:41;;;;;;;4.13;2.37;;;12.60;26.00;;;;;;5076668;28;20898;-70
2023/09/25 05:03:07;;;;;;;3.10;1.98;;;12.60;25.30;;;;;;5107273;28;20759;-70
2023/09/25 05:05:32;;;;;;;4.10;2.40;;;12.60;25.70;;;;;;5091539;28;20393;-70
2023/09/25 05:07:59;;;;;;;3.35;2.50;;;12.60;25.60;;;;;;5100882;28;20428;-68
2023/09/25 05:10:29;;;;;;;3.92;2.47;;;12.60;26.00;;;;;;5106752;28;20428;-69
2023/09/25 05:12:55;;;;;;;4.10;2.43;;;12.60;25.90;;;;;;5095881;28;20436;-70
2023/09/25 05:15:22;;;;;;;4.15;2.83;;;12.60;26.00;;;;;;5094916;28;20396;-70
2023/09/25 05:17:48;;;;;;;4.55;2.50;;;12.60;25.70;;;;;;5096157;28;20507;-69
2023/09/25 05:20:19;;;;;;;3.97;2.40;;;12.60;26.00;;;;;;5088893;28;20402;-70
2023/09/25 05:22:49;;;;;;;5.75;2.90;;;12.50;26.00;;;;;;5099633;28;20480;-70
2023/09/25 05:25:16;;;;;;;4.50;2.70;;;12.50;26.10;;;;;;5082652;28;20409;-70
2023/09/25 05:27:45;;;;;;;3.75;2.70;;;12.50;25.80;;;;;;5100515;28;20412;-70
2023/09/25 05:30:11;;;;;;;4.75;2.60;;;12.50;26.70;;;;;;5090221;28;20422;-69
2023/09/25 05:32:41;;;;;;;4.20;2.80;;;12.50;27.40;;;;;;5090106;28;20402;-69
2023/09/25 05:35:08;;;;;;;3.85;2.63;;;12.50;27.50;;;;;;5056496;28;20412;-69
2023/09/25 05:37:35;;;;;;;4.25;2.92;;;12.50;27.60;;;;;;5090714;28;20401;-69
2023/09/25 05:40:01;;;;;;;4.85;2.90;;;12.50;27.40;;;;;;5072367;28;20410;-69
2023/09/25 05:42:27;;;;;;;5.50;2.90;;;12.50;26.80;;;;;;5081543;28;20491;-69
2023/09/25 05:44:52;;;;;;;5.57;3.33;;;12.50;27.60;;;;;;5089583;28;20478;-69
2023/09/25 05:47:18;;;;;;;3.78;2.83;;;12.50;27.30;;;;;;5100924;28;20479;-69
2023/09/25 05:49:44;;;;;;;4.50;3.13;;;12.50;27.50;;;;;;5088748;28;20860;-69
2023/09/25 05:52:09;;;;;;;4.93;3.23;;;12.50;27.50;;;;;;5102784;28;20491;-69
2023/09/25 05:54:35;;;;;;;5.18;3.45;;;12.50;27.90;;;;;;5089563;28;20410;-70
2023/09/25 05:57:01;;;;;;;5.17;3.33;;;12.50;27.90;;;;;;5106711;28;20472;-70
2023/09/25 05:59:26;;;;;;;5.50;3.20;;;12.50;27.50;;;;;;5089533;28;20398;-69
2023/09/25 06:01:52;;;;;;;4.45;2.90;;;12.50;27.90;;;;;;5083247;28;20421;-70
2023/09/25 06:04:18;;;;;;;3.97;2.90;;;12.60;28.00;;;;;;5096671;28;20489;-70
2023/09/25 06:06:44;;;;;;;6.45;3.15;;;12.60;27.30;;;;;;5097227;28;20413;-70
2023/09/25 06:09:15;;;;;;;6.90;3.13;;;12.60;27.50;;;;;;5103166;28;20507;-70
2023/09/25 06:11:42;;;;;;;3.97;2.70;;;12.60;27.50;;;;;;5095369;28;20408;-70
2023/09/25 06:14:09;;;;;;;5.40;2.90;;;12.60;27.30;;;;;;5090331;28;20402;-70
2023/09/25 06:16:36;;;;;;;4.40;2.72;;;12.60;27.00;;;;;;5082083;28;20410;-70
2023/09/25 06:19:03;;;;;;;3.95;2.70;;;12.60;27.00;;;;;;5071622;28;20408;-70
2023/09/25 06:21:30;;;;;;;5.63;2.85;;;12.70;27.00;;;;;;5090586;28;20443;-69
2023/09/25 06:23:56;;;;;;;4.68;2.40;;;12.70;26.70;;;;;;5104615;28;20408;-70
2023/09/25 06:26:23;;;;;;;5.05;2.63;;;12.70;26.90;;;;;;5104630;28;20418;-70
2023/09/25 06:28:50;;;;;;;3.67;2.38;;;12.70;26.90;;;;;;5081817;28;20495;-70
2023/09/25 06:31:16;;;;;;;4.75;2.78;;;12.70;26.70;;;;;;5094897;28;20489;-70
2023/09/25 06:33:42;;;;;;;4.15;2.78;;;12.80;26.50;;;;;;5081547;28;20416;-70
2023/09/25 06:36:08;;;;;;;4.30;2.63;;;12.80;26.30;;;;;;5096701;28;20406;-69
2023/09/25 06:38:33;;;;;;;3.55;2.17;;;12.80;26.20;;;;;;5092053;28;20414;-69
2023/09/25 06:40:59;;;;;;;3.63;2.28;;;12.80;26.30;;;;;;5098429;28;20432;-69
2023/09/25 06:43:25;;;;;;;4.37;2.17;;;12.90;26.20;;;;;;5096190;28;20408;-70
2023/09/25 06:45:50;;;;;;;3.75;2.20;;;12.90;25.30;;;;;;5092402;28;20450;-70
2023/09/25 06:48:17;;;;;;;3.87;2.30;;;13.00;24.80;;;;;;5089658;28;20406;-70
2023/09/25 06:50:43;;;;;;;4.53;2.33;;;13.00;25.10;;;;;;5091533;28;20439;-69
2023/09/25 06:53:09;;;;;;;3.60;2.20;;;13.10;24.80;;;;;;5102737;28;20410;-70
2023/09/25 06:55:36;;;;;;;3.83;1.95;;;13.10;24.10;;;;;;5097437;28;20410;-70
2023/09/25 06:58:03;;;;;;;4.35;2.03;;;13.20;23.40;;;;;;5093494;28;20406;-70
2023/09/25 07:00:29;;;;;;;3.42;1.95;;;13.30;22.80;;;;;;5099041;28;20759;-69
2023/09/25 07:02:54;;;;;;;8.43;2.40;;;13.30;22.60;;;;;;5090918;28;20398;-69
2023/09/25 07:05:20;;;;;;;3.87;1.80;;;13.40;22.80;;;;;;5093433;28;20404;-70
2023/09/25 07:07:47;;;;;;;5.22;1.92;;;13.40;22.30;;;;;;5093731;28;20426;-69
2023/09/25 07:10:12;;;;;;;2.78;1.85;;;13.40;22.50;;;;;;5093757;28;20745;-70
2023/09/25 07:12:38;;;;;;;4.40;2.13;;;13.50;22.00;;;;;;5093317;28;20405;-69
2023/09/25 07:15:05;;;;;;;2.87;1.90;;;13.50;22.10;;;;;;5095523;28;20394;-69
2023/09/25 07:17:31;;;;;;;3.47;2.08;;;13.50;21.20;;;;;;5092940;28;20817;-70
2023/09/25 07:19:56;;;;;;;3.90;1.90;;;13.60;20.80;;;;;;5091326;28;20426;-70
2023/09/25 07:22:24;;;;;;;4.70;1.97;;;13.60;21.20;;;;;;5090616;28;20394;-69
2023/09/25 07:24:50;;;;;;;3.38;1.98;;;13.60;21.50;;;;;;5097338;28;20416;-69
2023/09/25 07:27:16;;;;;;;3.28;1.80;;;13.70;20.90;;;;;;5094450;28;20398;-69
2023/09/25 07:29:46;;;;;;;4.85;2.13;;;13.70;21.10;;;;;;5073042;28;20437;-70
2023/09/25 07:32:12;;;;;;;3.20;1.90;;;13.70;20.10;;;;;;5094418;28;20487;-70
2023/09/25 07:34:38;;;;;;;5.10;1.90;;;13.80;19.80;;;;;;5091075;28;20401;-70
2023/09/25 07:37:05;;;;;;;3.47;1.90;;;13.90;19.90;;;;;;5094053;28;20458;-70
2023/09/25 07:39:38;;;;;;;3.95;2.00;;;13.90;18.80;;;;;;5094081;28;20494;-70
2023/09/25 07:42:04;;;;;;;3.60;1.88;;;14.00;18.50;;;;;;5103143;28;20392;-70
2023/09/25 07:44:33;;;;;;;4.03;1.73;;;14.00;17.30;;;;;;5091500;28;20398;-71
2023/09/25 07:47:00;;;;;;;3.15;1.63;;;14.10;17.30;;;;;;5103327;28;20404;-70
2023/09/25 07:49:28;;;;;;;4.75;1.92;;;14.10;17.30;;;;;;5104073;28;20926;-70
2023/09/25 07:51:54;;;;;;;5.20;2.00;;;14.10;16.60;;;;;;5083865;28;20865;-69
2023/09/25 07:54:20;;;;;;;3.60;1.87;;;14.20;16.20;;;;;;5092075;28;20485;-69
2023/09/25 07:56:47;;;;;;;4.43;1.90;;;14.30;16.00;;;;;;5096391;28;20454;-69
2023/09/25 07:59:16;;;;;;;4.38;1.90;;;14.30;15.90;;;;;;5095416;28;20406;-70
2023/09/25 08:01:42;;;;;;;4.68;2.38;;;14.40;15.20;;;;;;5081419;28;20437;-70
2023/09/25 08:04:08;;;;;;;3.70;1.90;;;14.40;15.40;;;;;;5072974;28;20914;-69
2023/09/25 08:06:33;;;;;;;5.30;1.83;;;14.50;14.90;;;;;;5092517;28;20485;-70
2023/09/25 08:08:59;;;;;;;3.95;1.90;;;14.60;15.00;;;;;;5089950;28;20443;-70
2023/09/25 08:11:26;;;;;;;4.22;1.90;;;14.70;14.20;;;;;;5093583;28;20422;-70
2023/09/25 08:13:55;;;;;;;4.25;1.90;;;14.80;14.00;;;;;;5096992;28;20441;-70
2023/09/25 08:16:23;;;;;;;3.07;1.60;;;15.00;13.30;;;;;;5099264;28;20492;-70
2023/09/25 08:18:49;;;;;;;5.65;1.92;;;15.10;10.60;;;;;;5103155;28;20411;-70
2023/09/25 08:21:14;;;;;;;4.67;2.07;;;15.20;9.40;;;;;;5109124;28;20396;-70
2023/09/25 08:23:40;;;;;;;3.33;1.70;;;15.30;8.80;;;;;;5099194;28;20506;-70
2023/09/25 08:26:06;;;;;;;4.85;1.77;;;15.30;7.80;;;;;;5109359;28;20412;-70
2023/09/25 08:28:33;;;;;;;4.20;2.03;;;15.40;5.90;;;;;;5101489;28;20412;-70
2023/09/25 08:30:58;;;;;;;3.60;1.58;;;15.40;6.70;;;;;;5104985;28;20436;-70
2023/09/25 08:33:24;;;;;;;3.80;1.77;;;15.40;6.10;;;;;;5101218;28;20405;-69
2023/09/25 08:35:51;;;;;;;6.00;2.03;;;15.50;6.20;;;;;;5101681;28;20388;-70
2023/09/25 08:38:16;;;;;;;3.00;1.40;;;15.50;4.40;;;;;;5077822;28;20927;-70
2023/09/25 08:40:47;;;;;;;5.40;1.90;;;15.60;2.60;;;;;;5089960;28;20410;-70
2023/09/25 08:43:14;;;;;;;3.65;1.42;;;15.70;1.80;;;;;;5108265;28;20396;-70
2023/09/25 08:45:41;;;;;;;3.20;1.70;;;15.80;1.00;;;;;;5105422;28;20404;-70
2023/09/25 08:48:11;;;;;;;4.30;1.70;;;15.80;1.00;;;;;;5101716;28;20762;-70
2023/09/25 08:50:38;;;;;;;3.90;1.40;;;15.90;1.00;;;;;;5102852;28;20433;-70
2023/09/25 08:53:04;;;;;;;3.47;1.53;;;16.00;1.00;;;;;;5080958;28;20410;-70
2023/09/25 08:55:31;;;;;;;3.60;1.80;;;16.00;1.00;;;;;;5089085;28;20482;-70
2023/09/25 08:57:57;;;;;;;4.13;1.67;;;16.10;1.00;;;;;;5095010;28;20825;-70
2023/09/25 09:00:24;;;;;;;2.83;1.57;;;16.20;1.00;;;;;;5093320;28;20496;-70
2023/09/25 09:02:49;;;;;;;3.72;1.60;;;16.30;1.00;;;;;;5101296;28;20479;-70
2023/09/25 09:05:16;;;;;;;2.95;1.27;;;16.50;1.00;;;;;;5102040;28;20497;-70
2023/09/25 09:08:05;;;;;;;4.00;1.42;;;16.60;1.00;;;;;;5100117;28;20409;-70
2023/09/25 09:10:39;;;;;;;4.03;1.48;;;17.00;1.00;;;;;;5089569;28;20436;-70
2023/09/25 09:13:11;;;;;;;3.50;1.55;;;17.20;1.00;;;;;;5089082;28;20473;-70
2023/09/25 09:15:38;;;;;;;4.07;1.33;;;17.30;1.00;;;;;;5100732;28;20418;-70
2023/09/25 09:18:24;;;;;;;3.63;1.50;;;17.30;1.00;;;;;;5089282;28;20492;-70
2023/09/25 09:20:50;;;;;;;4.72;1.63;;;17.30;1.00;;;;;;5101645;28;20418;-69
2023/09/25 09:23:16;;;;;;;4.33;1.40;;;17.20;1.00;;;;;;5095161;28;20419;-70
2023/09/25 09:25:46;;;;;;;4.47;1.40;;;17.20;1.00;;;;;;5101578;28;21028;-70
2023/09/25 09:28:12;;;;;;;3.50;1.42;;;17.10;1.00;;;;;;5101683;28;20445;-70
2023/09/25 09:30:38;;;;;;;3.80;1.33;;;17.10;1.00;;;;;;5098815;28;20980;-70
2023/09/25 09:33:07;;;;;;;3.17;1.42;;;17.00;1.00;;;;;;5091933;28;20414;-70
2023/09/25 09:35:32;;;;;;;3.72;1.73;;;17.10;1.00;;;;;;5100047;28;20496;-70
2023/09/25 09:37:58;;;;;;;3.80;1.43;;;17.30;1.00;;;;;;5096647;28;20559;-70
2023/09/25 09:40:26;;;;;;;3.15;1.48;;;17.50;1.00;;;;;;5095256;28;20425;-70
2023/09/25 09:42:53;;;;;;;3.40;1.40;;;17.90;1.00;;;;;;5093341;28;20410;-70
2023/09/25 09:45:20;;;;;;;2.85;1.27;;;18.50;1.00;;;;;;5091057;28;20437;-71
2023/09/25 09:47:50;;;;;;;4.72;1.40;;;18.90;1.00;;;;;;5101852;28;20398;-70
2023/09/25 09:50:28;;;;;;;2.75;1.20;;;19.50;1.00;;;;;;5101722;28;20412;-71
2023/09/25 09:52:55;;;;;;;3.95;1.25;;;20.20;1.00;;;;;;5093350;28;20415;-71
2023/09/25 09:55:21;;;;;;;3.50;1.13;;;20.80;1.00;;;;;;5089744;28;20417;-70
2023/09/25 09:57:50;;;;;;;5.65;1.30;;;21.40;1.00;;;;;;5099698;28;20400;-70
2023/09/25 10:00:16;;;;;;;3.88;1.13;;;21.70;1.00;;;;;;5074156;28;20402;-71
2023/09/25 10:02:45;;;;;;;3.30;0.90;;;22.10;1.00;;;;;;5096186;28;20420;-71
2023/09/25 10:05:12;;;;;;;3.63;1.15;;;22.30;1.00;;;;;;5099323;28;20447;-71
2023/09/25 10:08:06;;;;;;;3.28;1.20;;;22.50;1.00;;;;;;5093833;28;20414;-70
2023/09/25 10:10:33;;;;;;;3.60;1.00;;;22.70;1.00;;;;;;5098929;28;20430;-71
2023/09/25 10:12:59;;;;;;;4.38;1.10;;;23.00;1.00;;;;;;5094057;28;20409;-71
2023/09/25 10:15:25;;;;;;;3.75;1.00;;;23.10;1.00;;;;;;5092827;28;20388;-71
2023/09/25 10:17:52;;;;;;;2.55;0.93;;;23.00;99.90;;;;;;5093968;28;20818;-71
2023/09/25 10:20:40;;;;;;;4.50;1.17;;;22.90;99.90;;;;;;5106061;28;20912;-71
2023/09/25 10:23:05;;;;;;;3.93;1.20;;;22.80;99.90;;;;;;5092062;28;20493;-70
2023/09/25 10:25:44;;;;;;;2.78;1.05;;;22.70;99.90;;;;;;5107898;28;20511;-71
2023/09/25 10:28:28;;;;;;;3.65;1.10;;;22.80;99.90;;;;;;5102826;28;20408;-71
2023/09/25 10:30:58;;;;;;;2.97;1.10;;;22.90;99.90;;;;;;5104716;28;20412;-71
2023/09/25 10:33:27;;;;;;;3.95;1.30;;;23.00;99.90;;;;;;5088025;28;20858;-71
2023/09/25 10:35:59;;;;;;;2.42;1.00;;;23.20;99.90;;;;;;5090060;28;20442;-71
2023/09/25 10:38:28;;;;;;;2.83;0.80;;;23.30;99.90;;;;;;5088082;28;20393;-71
2023/09/25 10:41:02;;;;;;;3.72;1.13;;;23.30;99.90;;;;;;5082905;28;20437;-71
2023/09/25 10:43:28;;;;;;;6.13;1.45;;;23.10;99.90;;;;;;5097354;28;20500;-71
2023/09/25 10:45:54;;;;;;;3.70;1.20;;;23.10;99.90;;;;;;5098725;28;20418;-71
2023/09/25 10:48:24;;;;;;;4.47;1.10;;;23.10;99.90;;;;;;5088299;28;20414;-70
2023/09/25 10:50:50;;;;;;;4.40;1.10;;;23.10;99.90;;;;;;5102183;28;20413;-71
2023/09/25 10:53:16;;;;;;;3.92;1.02;;;23.10;99.90;;;;;;5093156;28;20734;-70
2023/09/25 10:55:42;;;;;;;4.00;1.10;;;23.10;99.90;;;;;;5091876;28;20445;-70
2023/09/25 10:58:09;;;;;;;3.17;1.20;;;23.00;99.90;;;;;;5085508;28;20405;-70
2023/09/25 11:00:37;;;;;;;2.88;1.02;;;22.90;99.90;;;;;;5089802;28;20896;-70
2023/09/25 11:03:04;;;;;;;2.70;1.00;;;22.70;99.90;;;;;;5094749;28;20919;-70
2023/09/25 11:05:31;;;;;;;4.00;1.20;;;22.90;99.90;;;;;;5094116;28;21496;-70
2023/09/25 11:07:58;;;;;;;3.25;1.17;;;23.30;99.90;;;;;;5092746;28;20473;-70
2023/09/25 11:10:33;;;;;;;3.53;1.17;;;23.50;99.90;;;;;;5092633;28;20457;-70
2023/09/25 11:13:00;;;;;;;2.53;1.10;;;23.50;99.90;;;;;;5100731;28;20408;-68
2023/09/25 11:15:27;;;;;;;3.72;1.40;;;23.60;99.90;;;;;;5096022;28;20400;-69
2023/09/25 11:17:54;;;;;;;3.80;1.20;;;23.70;99.90;;;;;;5094590;28;20406;-68
2023/09/25 11:20:29;;;;;;;2.23;0.90;;;23.80;99.90;;;;;;5088750;28;20473;-69
2023/09/25 11:23:08;;;;;;;2.50;0.90;;;24.00;99.90;;;;;;5070678;28;21006;-68
2023/09/25 11:25:43;;;;;;;3.95;1.10;;;24.10;1.00;;;;;;5090558;28;20432;-69
2023/09/25 11:28:13;;;;;;;2.97;1.00;;;24.30;99.90;;;;;;5095519;28;20442;-69
2023/09/25 11:30:40;;;;;;;6.47;1.02;;;24.50;99.90;;;;;;5094759;28;20794;-70
2023/09/25 11:33:08;;;;;;;2.70;0.93;;;24.80;99.90;;;;;;5094966;28;20409;-70
2023/09/25 11:35:37;;;;;;;3.72;1.10;;;25.10;62.40;;;;;;5100037;28;20478;-70
2023/09/25 11:38:11;;;;;;;3.83;1.20;;;25.30;1.00;;;;;;5101395;28;20538;-69
2023/09/25 11:40:38;;;;;;;3.33;1.20;;;25.50;99.90;;;;;;5096267;28;20721;-70
2023/09/25 11:43:05;;;;;;;2.63;0.93;;;25.80;99.90;;;;;;5097407;28;20972;-70
2023/09/25 11:45:31;;;;;;;3.72;1.30;;;26.10;1.00;;;;;;5095961;28;20422;-69
2023/09/25 11:47:56;;;;;;;3.25;1.20;;;26.10;1.00;;;;;;5110586;28;20476;-70
2023/09/25 11:50:22;;;;;;;2.90;1.17;;;26.10;99.90;;;;;;5096309;28;20426;-70
2023/09/25 11:52:48;;;;;;;2.60;1.10;;;26.40;99.90;;;;;;5109918;28;20388;-70
2023/09/25 11:55:14;;;;;;;2.77;0.90;;;26.60;99.90;;;;;;5096362;28;20919;-70
2023/09/25 11:57:41;;;;;;;2.35;1.00;;;26.90;99.90;;;;;;5096297;28;20400;-70
2023/09/25 12:00:12;;;;;;;3.20;1.20;;;27.20;37.00;;;;;;5109024;28;20395;-70
2023/09/25 12:02:39;;;;;;;3.70;1.30;;;27.50;1.00;;;;;;5097605;28;20825;-70
2023/09/25 12:05:06;;;;;;;2.47;1.00;;;27.70;1.00;;;;;;5107838;28;20403;-70
2023/09/25 12:07:32;;;;;;;2.70;1.10;;;27.80;1.00;;;;;;5097364;28;20750;-70
2023/09/25 12:10:08;;;;;;;3.58;1.15;;;27.60;99.90;;;;;;5107513;28;20435;-70
2023/09/25 12:12:37;;;;;;;2.90;1.08;;;27.40;99.90;;;;;;5098229;28;20443;-70
2023/09/25 12:15:04;;;;;;;4.43;1.38;;;26.90;99.90;;;;;;5102781;28;20394;-70
2023/09/25 12:17:30;;;;;;;3.17;1.10;;;26.30;99.90;;;;;;5093770;28;20539;-69
2023/09/25 12:20:11;;;;;;;4.30;1.40;;;25.60;99.90;;;;;;5101864;28;20398;-70
2023/09/25 12:22:40;;;;;;;3.22;1.27;;;25.20;99.90;;;;;;5107501;28;20400;-69
2023/09/25 12:25:13;;;;;;;3.15;1.00;;;24.70;99.90;;;;;;5103537;28;20479;-69
2023/09/25 12:27:40;;;;;;;3.78;1.25;;;24.40;99.90;;;;;;5095669;28;20409;-69
2023/09/25 12:30:09;;;;;;;1.92;0.90;;;24.30;99.90;;;;;;5093078;28;20422;-70
2023/09/25 12:32:36;;;;;;;3.05;1.00;;;24.40;99.90;;;;;;5099446;28;20476;-69
2023/09/25 12:35:02;;;;;;;3.25;1.10;;;24.30;99.90;;;;;;5104517;28;20397;-70
2023/09/25 12:37:28;;;;;;;3.10;1.20;;;24.30;99.90;;;;;;5077965;28;20767;-69
2023/09/25 12:39:54;;;;;;;6.28;2.00;;;24.10;99.90;;;;;;5089707;28;20436;-69
2023/09/25 12:42:21;;;;;;;6.43;2.60;;;23.90;99.90;;;;;;5101993;28;20453;-69
2023/09/25 12:44:46;;;;;;;7.63;2.83;;;23.80;99.90;;;;;;5106851;28;20409;-69
2023/09/25 12:47:16;;;;;;;3.80;1.20;;;23.60;99.90;;;;;;5105468;28;20408;-69